createdAt,value
2022-08-22T00:01:55.972Z,1002.12
2022-08-22T00:06:55.872Z,1002.23
2022-08-22T00:11:55.796Z,1002.19
2022-08-22T00:16:55.737Z,1002.14
2022-08-22T00:21:55.668Z,1002.15
2022-08-22T00:26:55.597Z,1002.16
2022-08-22T00:31:55.536Z,1002.18
2022-08-22T00:36:55.465Z,1002.15
2022-08-22T00:41:55.400Z,1002.20
2022-08-22T00:46:55.350Z,1002.25
2022-08-22T00:51:55.258Z,1002.29
2022-08-22T00:56:55.214Z,1002.25
2022-08-22T01:01:55.391Z,1002.36
2022-08-22T01:06:55.102Z,1002.31
2022-08-22T01:11:54.999Z,1002.35
2022-08-22T01:16:54.973Z,1002.24
2022-08-22T01:21:54.869Z,1002.32
2022-08-22T01:26:54.813Z,1002.41
2022-08-22T01:31:54.739Z,1002.37
2022-08-22T01:36:54.692Z,1002.37
2022-08-22T01:41:54.603Z,1002.34
2022-08-22T01:46:54.541Z,1002.44
2022-08-22T01:51:54.489Z,1002.43
2022-08-22T01:56:54.411Z,1002.43
2022-08-22T02:01:54.451Z,1002.49
2022-08-22T02:06:54.413Z,1002.42
2022-08-22T02:11:54.236Z,1002.40
2022-08-22T02:16:54.152Z,1002.50
2022-08-22T02:21:54.080Z,1002.52
2022-08-22T02:26:54.025Z,1002.53
2022-08-22T02:31:53.952Z,1002.58
2022-08-22T02:36:53.889Z,1002.62
2022-08-22T02:41:53.824Z,1002.51
2022-08-22T02:46:53.762Z,1002.58
2022-08-22T02:51:53.713Z,1002.61
2022-08-22T02:56:53.615Z,1002.53
2022-08-22T03:01:53.562Z,1002.48
2022-08-22T03:06:53.615Z,1002.54
2022-08-22T03:11:53.614Z,1002.42
2022-08-22T03:16:53.345Z,1002.63
2022-08-22T03:21:53.284Z,1002.50
2022-08-22T03:26:53.216Z,1002.45
2022-08-22T03:31:53.136Z,1002.42
2022-08-22T03:36:53.078Z,1002.40
2022-08-22T03:41:53.006Z,1002.46
2022-08-22T03:46:52.946Z,1002.47
2022-08-22T03:51:52.934Z,1002.43
2022-08-22T03:56:54.161Z,1002.43
2022-08-22T04:01:53.754Z,1002.37
2022-08-22T04:06:56.319Z,1002.35
2022-08-22T04:11:52.595Z,1002.51
2022-08-22T04:16:52.672Z,1002.51
2022-08-22T04:21:52.459Z,1002.50
2022-08-22T04:26:52.421Z,1002.48
2022-08-22T04:31:52.371Z,1002.60
2022-08-22T04:36:52.268Z,1002.58
2022-08-22T04:41:52.198Z,1002.59
2022-08-22T04:46:52.228Z,1002.60
2022-08-22T04:51:52.069Z,1002.59
2022-08-22T04:56:52.011Z,1002.65
2022-08-22T05:01:51.964Z,1002.63
2022-08-22T05:06:51.871Z,1002.66
2022-08-22T05:11:51.820Z,1002.62
2022-08-22T05:16:51.742Z,1002.82
2022-08-22T05:21:51.842Z,1002.79
2022-08-22T05:26:51.601Z,1002.89
2022-08-22T05:31:51.541Z,1002.86
2022-08-22T05:36:51.470Z,1002.96
2022-08-22T05:41:51.392Z,1002.95
2022-08-22T05:46:51.340Z,1002.92
2022-08-22T05:51:51.269Z,1003.00
2022-08-22T05:56:51.251Z,1002.98
2022-08-22T06:01:51.210Z,1003.04
2022-08-22T06:06:51.072Z,1003.00
2022-08-22T06:11:51.979Z,1003.05
2022-08-22T06:16:50.988Z,1003.15
2022-08-22T06:21:50.873Z,1003.15
2022-08-22T06:26:50.990Z,1003.13
2022-08-22T06:31:50.763Z,1003.09
2022-08-22T06:36:50.696Z,1003.15
2022-08-22T06:41:50.614Z,1003.10
2022-08-22T06:46:50.574Z,1003.17
2022-08-22T06:51:50.477Z,1003.06
2022-08-22T06:56:50.415Z,1003.16
2022-08-22T07:01:50.409Z,1003.19
2022-08-22T07:06:50.286Z,1003.17
2022-08-22T07:11:50.206Z,1003.13
2022-08-22T07:16:50.196Z,1003.16
2022-08-22T07:21:50.136Z,1003.18
2022-08-22T07:26:50.068Z,1003.13
2022-08-22T07:31:50.171Z,1003.16
2022-08-22T07:36:49.896Z,1003.09
2022-08-22T07:41:49.867Z,1003.15
2022-08-22T07:46:49.788Z,1003.20
2022-08-22T07:51:49.725Z,1003.15
2022-08-22T07:56:49.634Z,1003.19
2022-08-22T08:01:49.627Z,1003.12
2022-08-22T08:06:49.537Z,1003.05
2022-08-22T08:11:49.471Z,1003.11
2022-08-22T08:16:49.391Z,1003.10
2022-08-22T08:21:49.306Z,1003.09
2022-08-22T08:26:49.259Z,1003.11
2022-08-22T08:31:49.176Z,1003.08
2022-08-22T08:36:49.370Z,1003.05
2022-08-22T08:41:49.049Z,1003.02
2022-08-22T08:46:55.559Z,1003.06
2022-08-22T08:51:49.918Z,1003.00
2022-08-22T08:56:48.950Z,1002.97
2022-08-22T09:01:49.793Z,1002.93
2022-08-22T09:06:52.788Z,1002.95
2022-08-22T09:11:49.715Z,1002.89
2022-08-22T09:16:51.565Z,1002.87
2022-08-22T09:21:48.526Z,1002.89
2022-08-22T09:26:48.478Z,1002.91
2022-08-22T09:31:52.088Z,1002.95
2022-08-22T09:36:49.349Z,1002.97
2022-08-22T09:41:51.759Z,1002.88
2022-08-22T09:46:48.200Z,1002.95
2022-08-22T09:51:48.147Z,1002.92
2022-08-22T09:56:48.751Z,1002.99
2022-08-22T10:01:48.010Z,1002.96
2022-08-22T10:06:48.016Z,1002.91
2022-08-22T10:11:47.884Z,1002.90
2022-08-22T10:16:48.366Z,1003.04
2022-08-22T10:21:47.748Z,1002.99
2022-08-22T10:26:48.630Z,1003.00
2022-08-22T10:31:59.014Z,1003.05
2022-08-22T10:36:48.561Z,1003.02
2022-08-22T10:41:47.501Z,1002.96
2022-08-22T10:46:47.712Z,1003.04
2022-08-22T10:51:47.354Z,1003.00
2022-08-22T10:56:47.325Z,1002.98
2022-08-22T11:01:47.307Z,1002.94
2022-08-22T11:06:47.159Z,1002.94
2022-08-22T11:11:47.492Z,1002.99
2022-08-22T11:16:47.034Z,1003.01
2022-08-22T11:21:47.024Z,1003.09
2022-08-22T11:26:47.807Z,1003.04
2022-08-22T11:31:47.175Z,1003.15
2022-08-22T11:36:46.778Z,1003.21
2022-08-22T11:41:52.339Z,1003.24
2022-08-22T11:46:47.926Z,1003.13
2022-08-22T11:51:46.639Z,1003.23
2022-08-22T11:56:46.540Z,1003.19
2022-08-22T12:01:46.509Z,1003.22
2022-08-22T12:06:46.845Z,1003.08
2022-08-22T12:11:46.347Z,1003.09
2022-08-22T12:16:47.377Z,1003.08
2022-08-22T12:21:46.211Z,1003.07
2022-08-22T12:26:46.157Z,1003.06
2022-08-22T12:31:46.089Z,1003.01
2022-08-22T12:36:46.008Z,1002.99
2022-08-22T12:41:46.854Z,1003.00
2022-08-22T12:46:46.637Z,1002.86
2022-08-22T12:51:46.873Z,1002.78
2022-08-22T12:56:47.506Z,1002.82
2022-08-22T13:01:45.725Z,1002.79
2022-08-22T13:06:48.830Z,1002.77
2022-08-22T13:11:45.571Z,1002.81
2022-08-22T13:16:48.888Z,1002.78
2022-08-22T13:21:46.413Z,1002.66
2022-08-22T13:26:45.449Z,1002.73
2022-08-22T13:31:45.292Z,1002.81
2022-08-22T13:36:51.625Z,1002.90
2022-08-22T13:41:46.155Z,1002.85
2022-08-22T13:47:12.644Z,1002.74
2022-08-22T13:51:46.026Z,1002.72
2022-08-22T13:56:47.170Z,1002.76
2022-08-22T14:01:44.929Z,1002.65
2022-08-22T14:06:44.825Z,1002.74
2022-08-22T14:11:44.761Z,1002.57
2022-08-22T14:16:44.687Z,1002.59
2022-08-22T14:21:44.610Z,1002.58
2022-08-22T14:26:47.854Z,1002.63
2022-08-22T14:31:45.363Z,1002.45
2022-08-22T14:36:44.440Z,1002.52
2022-08-22T14:41:55.489Z,1002.49
2022-08-22T14:46:45.265Z,1002.46
2022-08-22T14:51:44.196Z,1002.54
2022-08-22T14:56:44.158Z,1002.62
2022-08-22T15:01:44.340Z,1002.57
2022-08-22T15:06:48.268Z,1002.57
2022-08-22T15:11:43.931Z,1002.58
2022-08-22T15:16:43.881Z,1002.57
2022-08-22T15:21:43.789Z,1002.62
2022-08-22T15:26:45.285Z,1002.57
2022-08-22T15:31:46.853Z,1002.58
2022-08-22T15:36:43.611Z,1002.58
2022-08-22T15:41:43.559Z,1002.55
2022-08-22T15:46:43.537Z,1002.67
2022-08-22T15:51:43.414Z,1002.49
2022-08-22T15:56:43.356Z,1002.44
2022-08-22T16:01:43.368Z,1002.41
2022-08-22T16:06:44.414Z,1002.49
2022-08-22T16:11:43.174Z,1002.51
2022-08-22T16:16:43.103Z,1002.42
2022-08-22T16:21:43.037Z,1002.49
2022-08-22T16:26:42.959Z,1002.46
2022-08-22T16:31:42.891Z,1002.48
2022-08-22T16:36:42.838Z,1002.48
2022-08-22T16:41:42.748Z,1002.55
2022-08-22T16:46:42.687Z,1002.70
2022-08-22T16:51:42.629Z,1002.74
2022-08-22T16:56:42.558Z,1002.73
2022-08-22T17:01:42.568Z,1002.78
2022-08-22T17:06:42.439Z,1002.77
2022-08-22T17:11:42.384Z,1002.93
2022-08-22T17:16:42.364Z,1002.84
2022-08-22T17:21:42.233Z,1002.80
2022-08-22T17:26:43.249Z,1002.95
2022-08-22T17:31:42.085Z,1002.99
2022-08-22T17:36:42.044Z,1002.95
2022-08-22T17:41:41.960Z,1003.00
2022-08-22T17:46:41.986Z,1003.00
2022-08-22T17:51:41.837Z,1002.97
2022-08-22T17:56:41.819Z,1003.07
2022-08-22T18:01:41.789Z,1003.12
2022-08-22T18:06:41.646Z,1003.25
2022-08-22T18:11:41.630Z,1003.19
2022-08-22T18:16:41.490Z,1003.15
2022-08-22T18:21:41.451Z,1003.24
2022-08-22T18:26:41.373Z,1003.25
2022-08-22T18:31:41.306Z,1003.31
2022-08-22T18:36:41.282Z,1003.32
2022-08-22T18:41:41.176Z,1003.36
2022-08-22T18:46:41.133Z,1003.30
2022-08-22T18:51:41.100Z,1003.33
2022-08-22T18:56:41.026Z,1003.25
2022-08-22T19:01:44.535Z,1003.27
2022-08-22T19:06:40.859Z,1003.25
2022-08-22T19:11:40.768Z,1003.26
2022-08-22T19:16:40.743Z,1003.34
2022-08-22T19:21:40.638Z,1003.34
2022-08-22T19:26:40.580Z,1003.30
2022-08-22T19:31:40.530Z,1003.31
2022-08-22T19:36:40.490Z,1003.27
2022-08-22T19:41:40.386Z,1003.25
2022-08-22T19:46:40.312Z,1003.27
2022-08-22T19:51:40.242Z,1003.40
2022-08-22T19:56:40.180Z,1003.39
2022-08-22T20:01:40.193Z,1003.51
2022-08-22T20:06:44.456Z,1003.51
2022-08-22T20:11:39.974Z,1003.51
2022-08-22T20:16:39.956Z,1003.46
2022-08-22T20:21:40.083Z,1003.44
2022-08-22T20:26:52.173Z,1003.44
2022-08-22T20:31:40.727Z,1003.38
2022-08-22T20:36:39.670Z,1003.36
2022-08-22T20:41:39.608Z,1003.41
2022-08-22T20:46:39.527Z,1003.37
2022-08-22T20:51:39.459Z,1003.29
2022-08-22T20:56:48.697Z,1003.31
2022-08-22T21:01:40.338Z,1003.23
2022-08-22T21:06:39.255Z,1003.27
2022-08-22T21:11:39.181Z,1003.29
2022-08-22T21:16:39.109Z,1003.35
2022-08-22T21:21:39.058Z,1003.23
2022-08-22T21:26:38.991Z,1003.23
2022-08-22T21:31:38.911Z,1003.22
2022-08-22T21:36:38.860Z,1003.28
2022-08-22T21:41:38.803Z,1003.29
2022-08-22T21:46:38.712Z,1003.38
2022-08-22T21:51:38.653Z,1003.21
2022-08-22T21:56:38.574Z,1003.27
2022-08-22T22:01:38.528Z,1003.25
2022-08-22T22:06:38.462Z,1003.28
2022-08-22T22:11:38.376Z,1003.20
2022-08-22T22:16:38.334Z,1003.27
2022-08-22T22:21:38.254Z,1003.28
2022-08-22T22:26:38.177Z,1003.22
2022-08-22T22:31:38.308Z,1003.15
2022-08-22T22:36:38.046Z,1003.15
2022-08-22T22:41:37.977Z,1003.10
2022-08-22T22:46:37.927Z,1003.19
2022-08-22T22:51:37.847Z,1003.08
2022-08-22T22:56:37.778Z,1003.09
2022-08-22T23:01:37.708Z,1003.05
2022-08-22T23:06:37.668Z,1003.02
2022-08-22T23:11:37.588Z,1003.08
2022-08-22T23:16:37.565Z,1003.07
2022-08-22T23:21:37.439Z,1003.05
2022-08-22T23:26:37.377Z,1003.04
2022-08-22T23:31:37.305Z,1002.97
2022-08-22T23:36:37.418Z,1002.96
2022-08-22T23:41:37.231Z,1002.92
2022-08-22T23:46:37.136Z,1003.08
2022-08-22T23:51:37.042Z,1003.09
2022-08-22T23:56:36.972Z,1003.08
